sensor_id;sensor_type;location;lat;lon;timestamp;pressure;altitude;pressure_sealevel;temperature;humidity
36304;BME280;22335;49.800;8.596;2022-12-16T00:03:46;99568.50;;;1.77;49.97
36304;BME280;22335;49.800;8.596;2022-12-16T00:10:35;99592.97;;;1.93;50.17
36304;BME280;22335;49.800;8.596;2022-12-16T00:17:38;99569.63;;;1.81;49.92
36304;BME280;22335;49.800;8.596;2022-12-16T00:24:23;99587.50;;;1.88;49.73
36304;BME280;22335;49.800;8.596;2022-12-16T00:31:11;99580.72;;;1.85;49.85
36304;BME280;22335;49.800;8.596;2022-12-16T00:37:59;99583.91;;;1.82;49.71
36304;BME280;22335;49.800;8.596;2022-12-16T00:44:45;99583.19;;;1.87;49.76
36304;BME280;22335;49.800;8.596;2022-12-16T00:51:30;99575.78;;;1.77;49.65
36304;BME280;22335;49.800;8.596;2022-12-16T00:58:18;99597.59;;;1.97;49.73
36304;BME280;22335;49.800;8.596;2022-12-16T01:05:04;99614.94;;;2.01;49.45
36304;BME280;22335;49.800;8.596;2022-12-16T01:11:50;99626.09;;;2.32;49.15
36304;BME280;22335;49.800;8.596;2022-12-16T01:18:38;99644.97;;;2.10;49.63
36304;BME280;22335;49.800;8.596;2022-12-16T01:25:24;99639.06;;;2.13;49.18
36304;BME280;22335;49.800;8.596;2022-12-16T01:32:12;99647.00;;;2.20;49.36
36304;BME280;22335;49.800;8.596;2022-12-16T01:39:00;99643.25;;;2.21;49.42
36304;BME280;22335;49.800;8.596;2022-12-16T01:45:46;99654.75;;;2.33;48.98
36304;BME280;22335;49.800;8.596;2022-12-16T01:52:36;99644.13;;;2.26;49.11
36304;BME280;22335;49.800;8.596;2022-12-16T01:59:28;99641.59;;;2.20;49.25
36304;BME280;22335;49.800;8.596;2022-12-16T02:06:13;99661.19;;;2.32;49.05
36304;BME280;22335;49.800;8.596;2022-12-16T02:13:03;99645.06;;;2.15;48.83
36304;BME280;22335;49.800;8.596;2022-12-16T02:20:15;99651.88;;;2.23;48.92
36304;BME280;22335;49.800;8.596;2022-12-16T02:27:42;99634.94;;;2.05;49.03
36304;BME280;22335;49.800;8.596;2022-12-16T02:34:44;99646.72;;;1.99;49.13
36304;BME280;22335;49.800;8.596;2022-12-16T02:41:42;99645.13;;;1.81;49.09
36304;BME280;22335;49.800;8.596;2022-12-16T02:48:30;99649.94;;;1.63;49.13
36304;BME280;22335;49.800;8.596;2022-12-16T02:55:18;99636.88;;;1.37;49.34
36304;BME280;22335;49.800;8.596;2022-12-16T03:02:09;99615.91;;;1.23;49.39
36304;BME280;22335;49.800;8.596;2022-12-16T03:08:59;99651.66;;;1.35;49.16
36304;BME280;22335;49.800;8.596;2022-12-16T03:15:52;99639.97;;;1.12;49.52
36304;BME280;22335;49.800;8.596;2022-12-16T03:22:45;99647.47;;;1.10;49.45
36304;BME280;22335;49.800;8.596;2022-12-16T03:29:38;99563.06;;;0.42;49.37
36304;BME280;22335;49.800;8.596;2022-12-16T03:36:32;99661.13;;;0.92;49.41
36304;BME280;22335;49.800;8.596;2022-12-16T03:43:19;99665.22;;;0.95;49.51
36304;BME280;22335;49.800;8.596;2022-12-16T04:03:29;99701.03;;;0.95;49.43
36304;BME280;22335;49.800;8.596;2022-12-16T04:10:16;99707.47;;;0.94;49.42
36304;BME280;22335;49.800;8.596;2022-12-16T04:17:22;99715.66;;;1.28;48.92
36304;BME280;22335;49.800;8.596;2022-12-16T04:24:26;99707.34;;;1.01;49.50
36304;BME280;22335;49.800;8.596;2022-12-16T04:31:12;99713.63;;;1.06;49.26
36304;BME280;22335;49.800;8.596;2022-12-16T04:37:58;99742.59;;;1.28;49.21
36304;BME280;22335;49.800;8.596;2022-12-16T04:44:58;99741.28;;;1.30;49.25
36304;BME280;22335;49.800;8.596;2022-12-16T04:52:11;99743.63;;;1.27;48.56
36304;BME280;22335;49.800;8.596;2022-12-16T04:59:09;99763.56;;;1.26;48.34
36304;BME280;22335;49.800;8.596;2022-12-16T05:06:10;99770.16;;;1.18;48.36
36304;BME280;22335;49.800;8.596;2022-12-16T05:13:08;99793.94;;;1.09;48.28
36304;BME280;22335;49.800;8.596;2022-12-16T05:20:07;99779.50;;;0.87;48.41
36304;BME280;22335;49.800;8.596;2022-12-16T05:27:08;99801.59;;;0.89;48.69
36304;BME280;22335;49.800;8.596;2022-12-16T05:34:07;99798.56;;;0.85;48.50
36304;BME280;22335;49.800;8.596;2022-12-16T05:41:05;99825.94;;;0.94;48.50
36304;BME280;22335;49.800;8.596;2022-12-16T05:48:05;99821.03;;;0.91;48.71
36304;BME280;22335;49.800;8.596;2022-12-16T05:55:04;99848.28;;;1.06;48.53
36304;BME280;22335;49.800;8.596;2022-12-16T06:02:02;99849.91;;;1.07;48.39
36304;BME280;22335;49.800;8.596;2022-12-16T06:09:12;99855.44;;;1.01;48.45
36304;BME280;22335;49.800;8.596;2022-12-16T06:16:09;99864.31;;;1.01;48.29
36304;BME280;22335;49.800;8.596;2022-12-16T06:23:07;99882.56;;;1.11;48.53
36304;BME280;22335;49.800;8.596;2022-12-16T06:30:14;99891.13;;;1.08;48.33
36304;BME280;22335;49.800;8.596;2022-12-16T06:37:12;99895.59;;;1.02;48.34
36304;BME280;22335;49.800;8.596;2022-12-16T06:44:10;99916.78;;;1.10;48.33
36304;BME280;22335;49.800;8.596;2022-12-16T06:51:10;99917.97;;;1.03;48.44
36304;BME280;22335;49.800;8.596;2022-12-16T06:58:08;99918.31;;;1.06;48.41
36304;BME280;22335;49.800;8.596;2022-12-16T07:05:07;99936.09;;;1.07;48.42
36304;BME280;22335;49.800;8.596;2022-12-16T07:12:08;99956.09;;;1.11;48.36
36304;BME280;22335;49.800;8.596;2022-12-16T07:19:05;99963.38;;;1.11;48.38
36304;BME280;22335;49.800;8.596;2022-12-16T07:26:04;99978.38;;;1.07;48.43
36304;BME280;22335;49.800;8.596;2022-12-16T07:33:04;99991.69;;;1.02;48.42
36304;BME280;22335;49.800;8.596;2022-12-16T07:40:03;100009.06;;;1.06;48.32
36304;BME280;22335;49.800;8.596;2022-12-16T07:47:01;99997.66;;;0.92;48.27
36304;BME280;22335;49.800;8.596;2022-12-16T07:54:02;100027.66;;;1.07;48.29
36304;BME280;22335;49.800;8.596;2022-12-16T08:01:00;100046.28;;;1.09;48.14
36304;BME280;22335;49.800;8.596;2022-12-16T08:07:58;100047.22;;;1.03;48.21
36304;BME280;22335;49.800;8.596;2022-12-16T08:14:59;100064.09;;;1.10;48.45
36304;BME280;22335;49.800;8.596;2022-12-16T08:21:58;100070.53;;;1.09;48.13
36304;BME280;22335;49.800;8.596;2022-12-16T08:28:56;100082.56;;;1.06;48.14
36304;BME280;22335;49.800;8.596;2022-12-16T08:36:16;100085.72;;;1.03;48.31
36304;BME280;22335;49.800;8.596;2022-12-16T08:43:14;100080.81;;;1.00;48.47
36304;BME280;22335;49.800;8.596;2022-12-16T08:50:12;100102.00;;;1.08;48.55
36304;BME280;22335;49.800;8.596;2022-12-16T08:57:13;100115.63;;;1.25;48.53
36304;BME280;22335;49.800;8.596;2022-12-16T09:04:23;100137.00;;;1.50;48.62
36304;BME280;22335;49.800;8.596;2022-12-16T09:11:20;100114.25;;;1.58;48.51
36304;BME280;22335;49.800;8.596;2022-12-16T09:18:21;100152.22;;;1.92;48.82
36304;BME280;22335;49.800;8.596;2022-12-16T09:25:19;100150.94;;;2.18;48.76
36304;BME280;22335;49.800;8.596;2022-12-16T09:32:20;100147.03;;;2.37;48.73
36304;BME280;22335;49.800;8.596;2022-12-16T09:39:20;100156.44;;;2.63;48.75
36304;BME280;22335;49.800;8.596;2022-12-16T09:46:24;100164.44;;;2.70;48.96
36304;BME280;22335;49.800;8.596;2022-12-16T09:53:30;100123.19;;;2.46;48.84
36304;BME280;22335;49.800;8.596;2022-12-16T10:00:49;100163.88;;;2.85;48.77
36304;BME280;22335;49.800;8.596;2022-12-16T10:07:54;100142.34;;;2.73;48.96
36304;BME280;22335;49.800;8.596;2022-12-16T10:15:06;100160.06;;;2.69;48.81
36304;BME280;22335;49.800;8.596;2022-12-16T10:22:28;100146.63;;;2.57;48.94
36304;BME280;22335;49.800;8.596;2022-12-16T10:29:31;100150.28;;;2.51;49.08
36304;BME280;22335;49.800;8.596;2022-12-16T10:36:37;100151.66;;;2.53;49.37
36304;BME280;22335;49.800;8.596;2022-12-16T10:43:42;100165.06;;;2.48;49.64
36304;BME280;22335;49.800;8.596;2022-12-16T10:50:42;100183.69;;;2.62;49.52
36304;BME280;22335;49.800;8.596;2022-12-16T10:57:49;100178.78;;;2.59;49.60
36304;BME280;22335;49.800;8.596;2022-12-16T11:04:55;100179.94;;;2.63;49.80
36304;BME280;22335;49.800;8.596;2022-12-16T11:12:12;100161.75;;;2.58;49.90
36304;BME280;22335;49.800;8.596;2022-12-16T11:19:18;100186.22;;;2.80;49.89
36304;BME280;22335;49.800;8.596;2022-12-16T11:26:20;100172.63;;;2.75;49.89
36304;BME280;22335;49.800;8.596;2022-12-16T11:33:22;100197.00;;;2.92;50.04
36304;BME280;22335;49.800;8.596;2022-12-16T11:40:21;100154.78;;;2.74;49.66
36304;BME280;22335;49.800;8.596;2022-12-16T11:47:30;100190.97;;;3.02;50.08
36304;BME280;22335;49.800;8.596;2022-12-16T11:54:34;100152.38;;;2.89;49.82
36304;BME280;22335;49.800;8.596;2022-12-16T12:01:41;100198.88;;;3.20;49.78
36304;BME280;22335;49.800;8.596;2022-12-16T12:09:00;100221.59;;;3.36;49.91
36304;BME280;22335;49.800;8.596;2022-12-16T12:16:08;100204.22;;;3.32;49.80
36304;BME280;22335;49.800;8.596;2022-12-16T12:23:13;100208.19;;;3.41;49.84
36304;BME280;22335;49.800;8.596;2022-12-16T12:30:21;100234.50;;;3.62;49.69
36304;BME280;22335;49.800;8.596;2022-12-16T12:37:23;100230.47;;;3.65;49.59
36304;BME280;22335;49.800;8.596;2022-12-16T12:44:31;100226.41;;;3.62;49.54
36304;BME280;22335;49.800;8.596;2022-12-16T12:51:46;100233.09;;;3.60;49.42
36304;BME280;22335;49.800;8.596;2022-12-16T12:58:49;100252.78;;;3.72;49.62
36304;BME280;22335;49.800;8.596;2022-12-16T13:05:49;100266.88;;;3.74;49.30
36304;BME280;22335;49.800;8.596;2022-12-16T13:20:35;100285.81;;;3.74;49.19
36304;BME280;22335;49.800;8.596;2022-12-16T13:27:51;100279.59;;;3.74;49.47
36304;BME280;22335;49.800;8.596;2022-12-16T13:34:58;100278.88;;;3.78;49.34
36304;BME280;22335;49.800;8.596;2022-12-16T13:41:59;100277.78;;;3.79;49.02
36304;BME280;22335;49.800;8.596;2022-12-16T13:56:47;100305.69;;;3.97;48.98
36304;BME280;22335;49.800;8.596;2022-12-16T14:03:48;100314.22;;;4.22;48.97
36304;BME280;22335;49.800;8.596;2022-12-16T14:10:54;100324.88;;;4.29;48.98
36304;BME280;22335;49.800;8.596;2022-12-16T14:17:59;100322.28;;;4.34;48.74
36304;BME280;22335;49.800;8.596;2022-12-16T14:25:04;100354.81;;;4.39;48.56
36304;BME280;22335;49.800;8.596;2022-12-16T14:32:26;100357.63;;;4.44;48.65
36304;BME280;22335;49.800;8.596;2022-12-16T14:39:28;100355.72;;;4.45;48.46
36304;BME280;22335;49.800;8.596;2022-12-16T14:46:29;100373.97;;;4.49;48.67
36304;BME280;22335;49.800;8.596;2022-12-16T14:53:31;100367.22;;;4.52;48.37
36304;BME280;22335;49.800;8.596;2022-12-16T15:00:32;100380.53;;;4.53;48.49
36304;BME280;22335;49.800;8.596;2022-12-16T15:07:35;100404.72;;;4.60;48.27
36304;BME280;22335;49.800;8.596;2022-12-16T15:14:39;100302.41;;;3.95;48.40
36304;BME280;22335;49.800;8.596;2022-12-16T15:21:43;100427.22;;;4.77;48.20
36304;BME280;22335;49.800;8.596;2022-12-16T15:28:42;100443.31;;;4.84;47.91
36304;BME280;22335;49.800;8.596;2022-12-16T15:35:45;100439.78;;;4.83;47.93
36304;BME280;22335;49.800;8.596;2022-12-16T15:42:49;100445.28;;;4.89;47.96
36304;BME280;22335;49.800;8.596;2022-12-16T15:49:47;100469.50;;;4.95;47.86
36304;BME280;22335;49.800;8.596;2022-12-16T15:56:49;100472.69;;;4.92;47.58
36304;BME280;22335;49.800;8.596;2022-12-16T16:03:48;100478.38;;;4.91;47.82
36304;BME280;22335;49.800;8.596;2022-12-16T16:10:48;100491.53;;;4.99;47.76
36304;BME280;22335;49.800;8.596;2022-12-16T16:17:53;100521.75;;;4.91;47.86
36304;BME280;22335;49.800;8.596;2022-12-16T16:24:52;100508.53;;;4.77;47.79
36304;BME280;22335;49.800;8.596;2022-12-16T16:31:51;100523.13;;;4.76;47.76
36304;BME280;22335;49.800;8.596;2022-12-16T16:38:52;100528.38;;;4.66;47.98
36304;BME280;22335;49.800;8.596;2022-12-16T16:45:52;100530.25;;;4.66;47.91
36304;BME280;22335;49.800;8.596;2022-12-16T16:52:51;100539.69;;;4.63;47.97
36304;BME280;22335;49.800;8.596;2022-12-16T16:59:51;100558.41;;;4.65;47.88
36304;BME280;22335;49.800;8.596;2022-12-16T17:06:50;100556.75;;;4.63;47.75
36304;BME280;22335;49.800;8.596;2022-12-16T17:13:48;100564.94;;;4.80;47.51
36304;BME280;22335;49.800;8.596;2022-12-16T17:20:49;100506.13;;;4.35;47.37
36304;BME280;22335;49.800;8.596;2022-12-16T17:27:47;100597.19;;;4.82;47.38
36304;BME280;22335;49.800;8.596;2022-12-16T17:34:44;100585.06;;;4.84;47.29
36304;BME280;22335;49.800;8.596;2022-12-16T17:41:45;100586.34;;;4.65;47.23
36304;BME280;22335;49.800;8.596;2022-12-16T17:48:43;100608.72;;;4.60;47.53
36304;BME280;22335;49.800;8.596;2022-12-16T17:55:41;100605.13;;;4.43;47.44
36304;BME280;22335;49.800;8.596;2022-12-16T18:02:42;100627.03;;;4.42;47.53
36304;BME280;22335;49.800;8.596;2022-12-16T18:09:41;100629.81;;;4.18;47.69
36304;BME280;22335;49.800;8.596;2022-12-16T18:16:39;100643.91;;;4.08;47.61
36304;BME280;22335;49.800;8.596;2022-12-16T18:23:39;100631.47;;;3.84;47.73
36304;BME280;22335;49.800;8.596;2022-12-16T18:30:37;100670.66;;;3.81;47.67
36304;BME280;22335;49.800;8.596;2022-12-16T18:37:35;100661.94;;;3.67;48.03
36304;BME280;22335;49.800;8.596;2022-12-16T18:44:35;100676.63;;;3.60;48.22
36304;BME280;22335;49.800;8.596;2022-12-16T18:51:43;100678.63;;;3.76;47.85
36304;BME280;22335;49.800;8.596;2022-12-16T18:58:42;100675.59;;;3.73;47.47
36304;BME280;22335;49.800;8.596;2022-12-16T19:05:51;100692.38;;;3.75;47.71
36304;BME280;22335;49.800;8.596;2022-12-16T19:12:54;100717.13;;;3.78;47.85
36304;BME280;22335;49.800;8.596;2022-12-16T19:19:54;100723.06;;;3.68;47.70
36304;BME280;22335;49.800;8.596;2022-12-16T19:26:54;100737.56;;;3.62;47.78
36304;BME280;22335;49.800;8.596;2022-12-16T19:33:56;100754.47;;;3.58;47.84
36304;BME280;22335;49.800;8.596;2022-12-16T19:40:54;100754.19;;;3.47;47.65
36304;BME280;22335;49.800;8.596;2022-12-16T19:48:01;100751.59;;;3.41;47.92
36304;BME280;22335;49.800;8.596;2022-12-16T19:55:06;100747.94;;;3.35;47.83
36304;BME280;22335;49.800;8.596;2022-12-16T20:02:04;100777.44;;;3.37;47.67
36304;BME280;22335;49.800;8.596;2022-12-16T20:09:05;100785.63;;;3.30;47.90
36304;BME280;22335;49.800;8.596;2022-12-16T20:16:05;100797.16;;;3.26;47.79
36304;BME280;22335;49.800;8.596;2022-12-16T20:23:05;100792.13;;;3.11;47.83
36304;BME280;22335;49.800;8.596;2022-12-16T20:30:07;100796.41;;;3.00;48.09
36304;BME280;22335;49.800;8.596;2022-12-16T20:37:06;100818.88;;;3.00;47.80
36304;BME280;22335;49.800;8.596;2022-12-16T20:44:04;100813.31;;;2.95;47.94
36304;BME280;22335;49.800;8.596;2022-12-16T20:51:04;100824.41;;;2.87;47.70
36304;BME280;22335;49.800;8.596;2022-12-16T20:58:07;100846.78;;;2.94;47.84
36304;BME280;22335;49.800;8.596;2022-12-16T21:05:06;100848.56;;;2.82;47.66
36304;BME280;22335;49.800;8.596;2022-12-16T21:12:07;100856.50;;;2.77;47.88
36304;BME280;22335;49.800;8.596;2022-12-16T21:19:06;100885.94;;;2.85;47.53
36304;BME280;22335;49.800;8.596;2022-12-16T21:26:11;100891.19;;;2.80;47.52
36304;BME280;22335;49.800;8.596;2022-12-16T21:33:18;100900.63;;;2.71;47.72
36304;BME280;22335;49.800;8.596;2022-12-16T21:40:16;100872.13;;;2.50;47.70
36304;BME280;22335;49.800;8.596;2022-12-16T21:47:14;100920.63;;;2.63;47.71
36304;BME280;22335;49.800;8.596;2022-12-16T21:54:15;100911.00;;;2.49;47.60
36304;BME280;22335;49.800;8.596;2022-12-16T22:01:13;100921.56;;;2.50;47.65
36304;BME280;22335;49.800;8.596;2022-12-16T22:08:11;100939.19;;;2.53;47.46
36304;BME280;22335;49.800;8.596;2022-12-16T22:15:11;100934.53;;;2.35;47.54
36304;BME280;22335;49.800;8.596;2022-12-16T22:22:10;100950.16;;;2.33;47.47
36304;BME280;22335;49.800;8.596;2022-12-16T22:29:08;100983.13;;;2.35;47.54
36304;BME280;22335;49.800;8.596;2022-12-16T22:36:09;100983.59;;;2.25;47.63
36304;BME280;22335;49.800;8.596;2022-12-16T22:43:07;100986.97;;;2.21;47.40
36304;BME280;22335;49.800;8.596;2022-12-16T22:50:06;101002.34;;;2.14;47.57
36304;BME280;22335;49.800;8.596;2022-12-16T22:57:07;101013.41;;;2.05;47.59
36304;BME280;22335;49.800;8.596;2022-12-16T23:04:04;101005.38;;;1.92;47.70
36304;BME280;22335;49.800;8.596;2022-12-16T23:11:02;101020.72;;;1.98;47.66
36304;BME280;22335;49.800;8.596;2022-12-16T23:18:15;101026.53;;;1.89;47.60
36304;BME280;22335;49.800;8.596;2022-12-16T23:25:13;101016.16;;;1.85;47.69
36304;BME280;22335;49.800;8.596;2022-12-16T23:32:11;101025.75;;;1.75;47.25
36304;BME280;22335;49.800;8.596;2022-12-16T23:39:20;101039.16;;;2.01;46.76
36304;BME280;22335;49.800;8.596;2022-12-16T23:46:18;101048.25;;;1.49;47.03
36304;BME280;22335;49.800;8.596;2022-12-16T23:53:16;101065.44;;;1.48;47.27
